sensor_id;sensor_type;location;lat;lon;timestamp;temperature;humidity
16347;DHT22;8283;48.504;13.734;2023-05-18T00:01:34;15.30;63.10
16347;DHT22;8283;48.504;13.734;2023-05-18T00:04:19;15.30;63.40
16347;DHT22;8283;48.504;13.734;2023-05-18T00:07:08;15.30;63.10
16347;DHT22;8283;48.504;13.734;2023-05-18T00:09:53;15.60;63.50
16347;DHT22;8283;48.504;13.734;2023-05-18T00:12:37;15.40;63.20
16347;DHT22;8283;48.504;13.734;2023-05-18T00:15:22;15.40;63.20
16347;DHT22;8283;48.504;13.734;2023-05-18T00:18:11;15.50;63.40
16347;DHT22;8283;48.504;13.734;2023-05-18T00:20:56;15.50;63.80
16347;DHT22;8283;48.504;13.734;2023-05-18T00:23:44;15.50;63.60
16347;DHT22;8283;48.504;13.734;2023-05-18T00:26:32;15.40;63.60
16347;DHT22;8283;48.504;13.734;2023-05-18T00:29:18;15.40;63.50
16347;DHT22;8283;48.504;13.734;2023-05-18T00:32:04;15.50;63.90
16347;DHT22;8283;48.504;13.734;2023-05-18T00:34:49;15.40;63.70
16347;DHT22;8283;48.504;13.734;2023-05-18T00:37:33;15.40;63.80
16347;DHT22;8283;48.504;13.734;2023-05-18T00:40:18;15.40;63.60
16347;DHT22;8283;48.504;13.734;2023-05-18T00:43:05;15.50;63.90
16347;DHT22;8283;48.504;13.734;2023-05-18T00:45:50;15.50;63.90
16347;DHT22;8283;48.504;13.734;2023-05-18T00:48:34;15.90;64.00
16347;DHT22;8283;48.504;13.734;2023-05-18T00:51:21;15.70;63.80
16347;DHT22;8283;48.504;13.734;2023-05-18T00:54:09;15.50;64.20
16347;DHT22;8283;48.504;13.734;2023-05-18T00:56:54;15.50;63.80
16347;DHT22;8283;48.504;13.734;2023-05-18T00:59:38;15.50;63.90
16347;DHT22;8283;48.504;13.734;2023-05-18T01:02:24;15.50;64.00
16347;DHT22;8283;48.504;13.734;2023-05-18T01:05:19;15.50;64.10
16347;DHT22;8283;48.504;13.734;2023-05-18T01:08:06;15.50;64.70
16347;DHT22;8283;48.504;13.734;2023-05-18T01:10:55;15.50;64.10
16347;DHT22;8283;48.504;13.734;2023-05-18T01:13:55;15.50;64.10
16347;DHT22;8283;48.504;13.734;2023-05-18T01:16:55;15.40;64.80
16347;DHT22;8283;48.504;13.734;2023-05-18T01:28:38;15.40;64.60
16347;DHT22;8283;48.504;13.734;2023-05-18T01:31:23;15.40;64.10
16347;DHT22;8283;48.504;13.734;2023-05-18T01:34:07;15.40;64.00
16347;DHT22;8283;48.504;13.734;2023-05-18T01:36:52;15.40;64.00
16347;DHT22;8283;48.504;13.734;2023-05-18T01:39:39;15.30;64.00
16347;DHT22;8283;48.504;13.734;2023-05-18T01:42:25;15.50;64.30
16347;DHT22;8283;48.504;13.734;2023-05-18T01:45:17;15.30;64.30
16347;DHT22;8283;48.504;13.734;2023-05-18T01:48:06;15.40;64.70
16347;DHT22;8283;48.504;13.734;2023-05-18T01:50:55;15.30;64.40
16347;DHT22;8283;48.504;13.734;2023-05-18T01:53:50;15.30;64.80
16347;DHT22;8283;48.504;13.734;2023-05-18T01:56:36;15.30;65.10
16347;DHT22;8283;48.504;13.734;2023-05-18T01:59:24;15.20;64.30
16347;DHT22;8283;48.504;13.734;2023-05-18T02:02:10;15.20;64.30
16347;DHT22;8283;48.504;13.734;2023-05-18T02:04:55;15.40;64.60
16347;DHT22;8283;48.504;13.734;2023-05-18T02:07:40;15.40;64.50
16347;DHT22;8283;48.504;13.734;2023-05-18T02:10:27;15.20;64.50
16347;DHT22;8283;48.504;13.734;2023-05-18T02:13:11;15.40;64.60
16347;DHT22;8283;48.504;13.734;2023-05-18T02:15:56;15.30;64.50
16347;DHT22;8283;48.504;13.734;2023-05-18T02:18:40;15.20;64.60
16347;DHT22;8283;48.504;13.734;2023-05-18T02:21:26;15.40;64.60
16347;DHT22;8283;48.504;13.734;2023-05-18T02:24:11;15.30;64.50
16347;DHT22;8283;48.504;13.734;2023-05-18T02:26:56;15.40;64.60
16347;DHT22;8283;48.504;13.734;2023-05-18T02:29:40;15.30;64.60
16347;DHT22;8283;48.504;13.734;2023-05-18T02:32:25;15.50;64.60
16347;DHT22;8283;48.504;13.734;2023-05-18T02:35:09;15.20;64.50
16347;DHT22;8283;48.504;13.734;2023-05-18T02:37:54;15.30;64.60
16347;DHT22;8283;48.504;13.734;2023-05-18T02:40:39;15.20;64.50
16347;DHT22;8283;48.504;13.734;2023-05-18T02:43:23;15.20;64.60
16347;DHT22;8283;48.504;13.734;2023-05-18T02:46:07;15.30;64.70
16347;DHT22;8283;48.504;13.734;2023-05-18T02:48:52;15.20;64.70
16347;DHT22;8283;48.504;13.734;2023-05-18T02:51:36;15.20;64.80
16347;DHT22;8283;48.504;13.734;2023-05-18T02:54:23;15.20;64.70
16347;DHT22;8283;48.504;13.734;2023-05-18T02:57:07;15.20;64.90
16347;DHT22;8283;48.504;13.734;2023-05-18T03:00:00;15.30;64.80
16347;DHT22;8283;48.504;13.734;2023-05-18T03:02:44;15.20;64.80
16347;DHT22;8283;48.504;13.734;2023-05-18T03:05:31;15.10;64.60
16347;DHT22;8283;48.504;13.734;2023-05-18T03:08:16;15.10;64.70
16347;DHT22;8283;48.504;13.734;2023-05-18T03:11:02;15.10;64.80
16347;DHT22;8283;48.504;13.734;2023-05-18T03:13:48;15.10;64.90
16347;DHT22;8283;48.504;13.734;2023-05-18T03:16:34;15.10;65.10
16347;DHT22;8283;48.504;13.734;2023-05-18T03:19:22;15.10;65.00
16347;DHT22;8283;48.504;13.734;2023-05-18T03:22:07;15.10;65.00
16347;DHT22;8283;48.504;13.734;2023-05-18T03:24:52;15.20;65.10
16347;DHT22;8283;48.504;13.734;2023-05-18T03:27:38;15.00;64.90
16347;DHT22;8283;48.504;13.734;2023-05-18T03:30:23;15.00;64.90
16347;DHT22;8283;48.504;13.734;2023-05-18T03:33:07;15.00;64.90
16347;DHT22;8283;48.504;13.734;2023-05-18T03:35:52;15.00;65.00
16347;DHT22;8283;48.504;13.734;2023-05-18T03:38:38;15.00;65.10
16347;DHT22;8283;48.504;13.734;2023-05-18T03:41:29;15.00;65.10
16347;DHT22;8283;48.504;13.734;2023-05-18T03:44:15;15.00;65.40
16347;DHT22;8283;48.504;13.734;2023-05-18T03:47:00;15.00;65.40
16347;DHT22;8283;48.504;13.734;2023-05-18T03:49:44;15.00;65.20
16347;DHT22;8283;48.504;13.734;2023-05-18T03:52:30;15.10;65.20
16347;DHT22;8283;48.504;13.734;2023-05-18T03:55:17;15.30;65.40
16347;DHT22;8283;48.504;13.734;2023-05-18T03:58:04;15.00;65.20
16347;DHT22;8283;48.504;13.734;2023-05-18T04:00:50;15.00;65.30
16347;DHT22;8283;48.504;13.734;2023-05-18T04:03:36;15.00;65.40
16347;DHT22;8283;48.504;13.734;2023-05-18T04:06:21;15.00;65.40
16347;DHT22;8283;48.504;13.734;2023-05-18T04:09:07;15.10;65.60
16347;DHT22;8283;48.504;13.734;2023-05-18T04:11:51;15.00;65.40
16347;DHT22;8283;48.504;13.734;2023-05-18T04:14:36;15.00;66.10
16347;DHT22;8283;48.504;13.734;2023-05-18T04:17:20;15.10;65.60
16347;DHT22;8283;48.504;13.734;2023-05-18T04:20:08;15.60;66.00
16347;DHT22;8283;48.504;13.734;2023-05-18T04:22:56;15.00;65.80
16347;DHT22;8283;48.504;13.734;2023-05-18T04:25:41;15.10;65.80
16347;DHT22;8283;48.504;13.734;2023-05-18T04:28:27;15.10;66.00
16347;DHT22;8283;48.504;13.734;2023-05-18T04:31:14;15.20;65.90
16347;DHT22;8283;48.504;13.734;2023-05-18T04:34:03;15.40;66.40
16347;DHT22;8283;48.504;13.734;2023-05-18T04:36:48;15.20;66.00
16347;DHT22;8283;48.504;13.734;2023-05-18T04:39:33;15.20;65.90
16347;DHT22;8283;48.504;13.734;2023-05-18T04:42:20;15.30;66.00
16347;DHT22;8283;48.504;13.734;2023-05-18T04:45:06;15.20;66.00
16347;DHT22;8283;48.504;13.734;2023-05-18T04:47:52;15.30;66.10
16347;DHT22;8283;48.504;13.734;2023-05-18T04:50:39;15.30;66.10
16347;DHT22;8283;48.504;13.734;2023-05-18T04:53:23;15.30;66.40
16347;DHT22;8283;48.504;13.734;2023-05-18T04:56:11;15.30;66.20
16347;DHT22;8283;48.504;13.734;2023-05-18T04:58:56;15.40;66.30
16347;DHT22;8283;48.504;13.734;2023-05-18T05:01:43;15.40;66.40
16347;DHT22;8283;48.504;13.734;2023-05-18T05:04:30;15.40;66.40
16347;DHT22;8283;48.504;13.734;2023-05-18T05:07:15;15.60;66.70
16347;DHT22;8283;48.504;13.734;2023-05-18T05:10:03;15.60;66.60
16347;DHT22;8283;48.504;13.734;2023-05-18T05:12:49;15.60;66.70
16347;DHT22;8283;48.504;13.734;2023-05-18T05:15:34;15.60;67.00
16347;DHT22;8283;48.504;13.734;2023-05-18T05:18:20;15.70;66.90
16347;DHT22;8283;48.504;13.734;2023-05-18T05:21:05;15.80;67.10
16347;DHT22;8283;48.504;13.734;2023-05-18T05:23:50;16.00;67.10
16347;DHT22;8283;48.504;13.734;2023-05-18T05:26:35;15.90;67.10
16347;DHT22;8283;48.504;13.734;2023-05-18T05:29:21;16.00;67.00
16347;DHT22;8283;48.504;13.734;2023-05-18T05:32:08;16.10;67.00
16347;DHT22;8283;48.504;13.734;2023-05-18T05:34:52;16.20;66.90
16347;DHT22;8283;48.504;13.734;2023-05-18T05:37:38;16.20;66.80
16347;DHT22;8283;48.504;13.734;2023-05-18T05:40:24;16.30;66.80
16347;DHT22;8283;48.504;13.734;2023-05-18T05:43:17;16.40;66.90
16347;DHT22;8283;48.504;13.734;2023-05-18T05:46:03;16.50;67.10
16347;DHT22;8283;48.504;13.734;2023-05-18T05:48:52;16.50;67.00
16347;DHT22;8283;48.504;13.734;2023-05-18T05:51:37;16.70;67.20
16347;DHT22;8283;48.504;13.734;2023-05-18T05:54:23;16.70;67.00
16347;DHT22;8283;48.504;13.734;2023-05-18T05:57:08;16.80;67.10
16347;DHT22;8283;48.504;13.734;2023-05-18T05:59:53;16.90;67.10
16347;DHT22;8283;48.504;13.734;2023-05-18T06:02:39;17.00;67.20
16347;DHT22;8283;48.504;13.734;2023-05-18T06:05:25;17.10;67.10
16347;DHT22;8283;48.504;13.734;2023-05-18T06:08:13;17.30;67.00
16347;DHT22;8283;48.504;13.734;2023-05-18T06:11:01;17.40;66.90
16347;DHT22;8283;48.504;13.734;2023-05-18T06:13:48;17.50;66.90
16347;DHT22;8283;48.504;13.734;2023-05-18T06:16:37;17.60;66.90
16347;DHT22;8283;48.504;13.734;2023-05-18T06:19:22;17.70;66.40
16347;DHT22;8283;48.504;13.734;2023-05-18T06:22:07;17.80;66.70
16347;DHT22;8283;48.504;13.734;2023-05-18T06:25:02;17.80;66.40
16347;DHT22;8283;48.504;13.734;2023-05-18T06:28:05;18.00;66.50
16347;DHT22;8283;48.504;13.734;2023-05-18T06:31:13;18.10;66.40
16347;DHT22;8283;48.504;13.734;2023-05-18T06:34:13;18.30;65.70
16347;DHT22;8283;48.504;13.734;2023-05-18T06:36:58;18.40;65.40
16347;DHT22;8283;48.504;13.734;2023-05-18T06:39:47;18.50;65.70
16347;DHT22;8283;48.504;13.734;2023-05-18T06:42:33;18.70;65.00
16347;DHT22;8283;48.504;13.734;2023-05-18T06:45:34;18.80;65.00
16347;DHT22;8283;48.504;13.734;2023-05-18T06:48:30;18.80;63.50
16347;DHT22;8283;48.504;13.734;2023-05-18T06:51:17;18.90;63.70
16347;DHT22;8283;48.504;13.734;2023-05-18T06:54:03;19.00;62.80
16347;DHT22;8283;48.504;13.734;2023-05-18T06:56:52;19.10;62.90
16347;DHT22;8283;48.504;13.734;2023-05-18T06:59:36;19.20;62.80
16347;DHT22;8283;48.504;13.734;2023-05-18T07:02:24;19.20;63.20
16347;DHT22;8283;48.504;13.734;2023-05-18T07:05:10;19.20;62.40
16347;DHT22;8283;48.504;13.734;2023-05-18T07:07:54;19.30;62.20
16347;DHT22;8283;48.504;13.734;2023-05-18T07:10:40;19.30;62.60
16347;DHT22;8283;48.504;13.734;2023-05-18T07:13:28;19.40;62.40
16347;DHT22;8283;48.504;13.734;2023-05-18T07:16:12;19.50;61.90
16347;DHT22;8283;48.504;13.734;2023-05-18T07:19:00;19.50;62.40
16347;DHT22;8283;48.504;13.734;2023-05-18T07:21:44;19.70;61.90
16347;DHT22;8283;48.504;13.734;2023-05-18T07:24:30;19.80;62.20
16347;DHT22;8283;48.504;13.734;2023-05-18T07:27:16;20.00;61.80
16347;DHT22;8283;48.504;13.734;2023-05-18T07:30:01;19.90;61.40
16347;DHT22;8283;48.504;13.734;2023-05-18T07:32:50;20.00;61.30
16347;DHT22;8283;48.504;13.734;2023-05-18T07:35:35;20.10;60.50
16347;DHT22;8283;48.504;13.734;2023-05-18T07:38:20;20.20;61.10
16347;DHT22;8283;48.504;13.734;2023-05-18T07:41:05;20.20;61.10
16347;DHT22;8283;48.504;13.734;2023-05-18T07:43:50;20.30;60.90
16347;DHT22;8283;48.504;13.734;2023-05-18T07:46:35;20.30;61.00
16347;DHT22;8283;48.504;13.734;2023-05-18T07:49:21;20.50;61.50
16347;DHT22;8283;48.504;13.734;2023-05-18T07:52:10;20.70;61.50
16347;DHT22;8283;48.504;13.734;2023-05-18T07:54:55;20.70;61.60
16347;DHT22;8283;48.504;13.734;2023-05-18T07:57:40;20.90;61.30
16347;DHT22;8283;48.504;13.734;2023-05-18T08:00:25;20.90;61.00
16347;DHT22;8283;48.504;13.734;2023-05-18T08:03:10;21.00;60.80
16347;DHT22;8283;48.504;13.734;2023-05-18T08:05:54;21.10;60.40
16347;DHT22;8283;48.504;13.734;2023-05-18T08:08:39;21.30;60.20
16347;DHT22;8283;48.504;13.734;2023-05-18T08:11:24;21.20;59.80
16347;DHT22;8283;48.504;13.734;2023-05-18T08:14:08;21.30;59.70
16347;DHT22;8283;48.504;13.734;2023-05-18T08:16:53;21.40;59.60
16347;DHT22;8283;48.504;13.734;2023-05-18T08:19:55;21.40;59.30
16347;DHT22;8283;48.504;13.734;2023-05-18T08:22:50;21.40;57.70
16347;DHT22;8283;48.504;13.734;2023-05-18T08:25:34;21.60;58.70
16347;DHT22;8283;48.504;13.734;2023-05-18T08:28:19;21.30;58.30
16347;DHT22;8283;48.504;13.734;2023-05-18T08:31:03;21.40;58.40
16347;DHT22;8283;48.504;13.734;2023-05-18T08:33:49;21.30;58.10
16347;DHT22;8283;48.504;13.734;2023-05-18T08:36:37;21.30;57.60
16347;DHT22;8283;48.504;13.734;2023-05-18T08:39:23;21.20;57.00
16347;DHT22;8283;48.504;13.734;2023-05-18T08:42:21;21.20;57.20
16347;DHT22;8283;48.504;13.734;2023-05-18T08:47:55;21.00;57.30
16347;DHT22;8283;48.504;13.734;2023-05-18T08:50:43;20.90;57.00
16347;DHT22;8283;48.504;13.734;2023-05-18T08:53:28;20.90;56.80
16347;DHT22;8283;48.504;13.734;2023-05-18T08:56:15;20.70;57.00
16347;DHT22;8283;48.504;13.734;2023-05-18T08:59:03;20.80;57.20
16347;DHT22;8283;48.504;13.734;2023-05-18T09:01:51;20.70;56.80
16347;DHT22;8283;48.504;13.734;2023-05-18T09:04:36;20.70;57.20
16347;DHT22;8283;48.504;13.734;2023-05-18T09:07:22;20.70;57.00
16347;DHT22;8283;48.504;13.734;2023-05-18T09:10:11;20.50;56.80
16347;DHT22;8283;48.504;13.734;2023-05-18T09:12:57;20.60;56.30
16347;DHT22;8283;48.504;13.734;2023-05-18T09:15:43;20.60;57.00
16347;DHT22;8283;48.504;13.734;2023-05-18T09:18:27;20.60;57.20
16347;DHT22;8283;48.504;13.734;2023-05-18T09:21:12;20.60;57.40
16347;DHT22;8283;48.504;13.734;2023-05-18T09:23:56;20.70;57.50
16347;DHT22;8283;48.504;13.734;2023-05-18T09:26:42;20.90;58.10
16347;DHT22;8283;48.504;13.734;2023-05-18T09:29:27;21.00;57.20
16347;DHT22;8283;48.504;13.734;2023-05-18T09:32:13;21.10;57.40
16347;DHT22;8283;48.504;13.734;2023-05-18T09:35:06;21.20;57.10
16347;DHT22;8283;48.504;13.734;2023-05-18T09:37:54;21.20;56.00
16347;DHT22;8283;48.504;13.734;2023-05-18T09:40:53;21.30;56.30
16347;DHT22;8283;48.504;13.734;2023-05-18T09:43:39;21.40;55.40
16347;DHT22;8283;48.504;13.734;2023-05-18T09:46:24;21.40;56.60
16347;DHT22;8283;48.504;13.734;2023-05-18T09:49:10;21.50;56.00
16347;DHT22;8283;48.504;13.734;2023-05-18T09:52:00;21.70;56.40
16347;DHT22;8283;48.504;13.734;2023-05-18T09:54:56;21.60;55.50
16347;DHT22;8283;48.504;13.734;2023-05-18T09:57:47;21.80;55.10
16347;DHT22;8283;48.504;13.734;2023-05-18T10:00:32;22.10;55.40
16347;DHT22;8283;48.504;13.734;2023-05-18T10:03:24;22.10;55.60
16347;DHT22;8283;48.504;13.734;2023-05-18T10:06:10;22.20;55.20
16347;DHT22;8283;48.504;13.734;2023-05-18T10:08:57;22.30;54.90
16347;DHT22;8283;48.504;13.734;2023-05-18T10:11:46;22.40;55.50
16347;DHT22;8283;48.504;13.734;2023-05-18T10:14:34;22.50;55.00
16347;DHT22;8283;48.504;13.734;2023-05-18T10:17:20;22.60;55.50
16347;DHT22;8283;48.504;13.734;2023-05-18T10:20:08;22.70;55.30
16347;DHT22;8283;48.504;13.734;2023-05-18T10:22:56;22.90;55.10
16347;DHT22;8283;48.504;13.734;2023-05-18T10:25:45;23.00;54.50
16347;DHT22;8283;48.504;13.734;2023-05-18T10:28:37;23.10;54.10
16347;DHT22;8283;48.504;13.734;2023-05-18T10:31:22;23.10;53.70
16347;DHT22;8283;48.504;13.734;2023-05-18T10:34:09;23.00;53.30
16347;DHT22;8283;48.504;13.734;2023-05-18T10:36:55;22.80;50.30
16347;DHT22;8283;48.504;13.734;2023-05-18T10:39:43;22.70;51.70
16347;DHT22;8283;48.504;13.734;2023-05-18T10:42:29;22.60;52.00
16347;DHT22;8283;48.504;13.734;2023-05-18T10:45:14;22.60;52.60
16347;DHT22;8283;48.504;13.734;2023-05-18T10:48:00;22.60;53.10
16347;DHT22;8283;48.504;13.734;2023-05-18T10:50:49;22.60;52.80
16347;DHT22;8283;48.504;13.734;2023-05-18T10:53:39;22.60;52.50
16347;DHT22;8283;48.504;13.734;2023-05-18T10:56:27;22.70;52.20
16347;DHT22;8283;48.504;13.734;2023-05-18T10:59:13;22.70;52.70
16347;DHT22;8283;48.504;13.734;2023-05-18T11:02:00;22.70;52.70
16347;DHT22;8283;48.504;13.734;2023-05-18T11:04:46;22.70;52.60
16347;DHT22;8283;48.504;13.734;2023-05-18T11:07:32;22.70;52.50
16347;DHT22;8283;48.504;13.734;2023-05-18T11:10:17;22.60;52.40
16347;DHT22;8283;48.504;13.734;2023-05-18T11:13:02;22.50;52.40
16347;DHT22;8283;48.504;13.734;2023-05-18T11:18:50;22.20;52.20
16347;DHT22;8283;48.504;13.734;2023-05-18T11:24:32;21.90;53.20
16347;DHT22;8283;48.504;13.734;2023-05-18T11:27:17;21.90;53.10
16347;DHT22;8283;48.504;13.734;2023-05-18T11:30:03;21.90;53.80
16347;DHT22;8283;48.504;13.734;2023-05-18T11:32:51;21.90;54.00
16347;DHT22;8283;48.504;13.734;2023-05-18T11:36:00;21.90;54.10
16347;DHT22;8283;48.504;13.734;2023-05-18T11:41:38;22.00;54.30
16347;DHT22;8283;48.504;13.734;2023-05-18T11:44:27;22.20;54.90
16347;DHT22;8283;48.504;13.734;2023-05-18T11:47:11;22.30;55.20
16347;DHT22;8283;48.504;13.734;2023-05-18T11:49:56;22.60;55.50
16347;DHT22;8283;48.504;13.734;2023-05-18T11:52:45;22.90;55.60
16347;DHT22;8283;48.504;13.734;2023-05-18T11:55:37;23.10;55.00
16347;DHT22;8283;48.504;13.734;2023-05-18T11:58:25;23.30;54.50
16347;DHT22;8283;48.504;13.734;2023-05-18T12:01:14;23.60;54.20
16347;DHT22;8283;48.504;13.734;2023-05-18T12:03:59;23.70;53.70
16347;DHT22;8283;48.504;13.734;2023-05-18T12:06:48;23.80;53.50
16347;DHT22;8283;48.504;13.734;2023-05-18T12:09:32;23.80;52.90
16347;DHT22;8283;48.504;13.734;2023-05-18T12:12:18;23.80;53.00
16347;DHT22;8283;48.504;13.734;2023-05-18T12:15:08;23.70;52.60
16347;DHT22;8283;48.504;13.734;2023-05-18T12:17:53;23.60;52.60
16347;DHT22;8283;48.504;13.734;2023-05-18T12:20:38;23.50;52.70
16347;DHT22;8283;48.504;13.734;2023-05-18T12:23:36;23.40;52.60
16347;DHT22;8283;48.504;13.734;2023-05-18T12:26:21;23.30;51.90
16347;DHT22;8283;48.504;13.734;2023-05-18T12:29:08;23.20;52.70
16347;DHT22;8283;48.504;13.734;2023-05-18T12:31:55;23.20;53.00
16347;DHT22;8283;48.504;13.734;2023-05-18T12:34:43;23.10;53.00
16347;DHT22;8283;48.504;13.734;2023-05-18T12:37:28;23.20;53.10
16347;DHT22;8283;48.504;13.734;2023-05-18T12:40:16;23.20;53.60
16347;DHT22;8283;48.504;13.734;2023-05-18T12:43:01;23.30;53.60
16347;DHT22;8283;48.504;13.734;2023-05-18T12:45:48;23.40;53.70
16347;DHT22;8283;48.504;13.734;2023-05-18T12:48:58;23.50;53.60
16347;DHT22;8283;48.504;13.734;2023-05-18T12:51:44;23.60;52.70
16347;DHT22;8283;48.504;13.734;2023-05-18T12:54:29;23.70;53.50
16347;DHT22;8283;48.504;13.734;2023-05-18T12:57:14;23.80;53.60
16347;DHT22;8283;48.504;13.734;2023-05-18T13:00:01;24.00;53.70
16347;DHT22;8283;48.504;13.734;2023-05-18T13:02:45;24.10;53.30
16347;DHT22;8283;48.504;13.734;2023-05-18T13:05:30;24.20;53.10
16347;DHT22;8283;48.504;13.734;2023-05-18T13:08:18;24.30;52.90
16347;DHT22;8283;48.504;13.734;2023-05-18T13:11:07;24.40;53.00
16347;DHT22;8283;48.504;13.734;2023-05-18T13:14:06;24.40;52.70
16347;DHT22;8283;48.504;13.734;2023-05-18T13:16:51;24.50;51.90
16347;DHT22;8283;48.504;13.734;2023-05-18T13:19:36;24.50;52.20
16347;DHT22;8283;48.504;13.734;2023-05-18T13:22:21;24.50;52.20
16347;DHT22;8283;48.504;13.734;2023-05-18T13:25:06;24.50;52.20
16347;DHT22;8283;48.504;13.734;2023-05-18T13:27:52;24.50;52.00
16347;DHT22;8283;48.504;13.734;2023-05-18T13:30:38;24.50;51.70
16347;DHT22;8283;48.504;13.734;2023-05-18T13:33:23;24.60;51.70
16347;DHT22;8283;48.504;13.734;2023-05-18T13:36:09;24.50;51.60
16347;DHT22;8283;48.504;13.734;2023-05-18T13:38:53;24.50;51.50
16347;DHT22;8283;48.504;13.734;2023-05-18T13:41:37;24.50;51.40
16347;DHT22;8283;48.504;13.734;2023-05-18T13:44:22;24.50;51.10
16347;DHT22;8283;48.504;13.734;2023-05-18T13:47:07;24.40;51.00
16347;DHT22;8283;48.504;13.734;2023-05-18T13:49:51;24.40;51.00
16347;DHT22;8283;48.504;13.734;2023-05-18T13:52:36;24.30;50.90
16347;DHT22;8283;48.504;13.734;2023-05-18T13:55:21;24.30;51.00
16347;DHT22;8283;48.504;13.734;2023-05-18T13:58:05;24.20;50.90
16347;DHT22;8283;48.504;13.734;2023-05-18T14:00:50;24.20;50.80
16347;DHT22;8283;48.504;13.734;2023-05-18T14:03:36;24.10;50.80
16347;DHT22;8283;48.504;13.734;2023-05-18T14:06:21;24.00;50.70
16347;DHT22;8283;48.504;13.734;2023-05-18T14:09:06;23.90;50.80
16347;DHT22;8283;48.504;13.734;2023-05-18T14:11:51;23.80;50.90
16347;DHT22;8283;48.504;13.734;2023-05-18T14:14:36;23.70;51.30
16347;DHT22;8283;48.504;13.734;2023-05-18T14:17:21;23.80;51.60
16347;DHT22;8283;48.504;13.734;2023-05-18T14:20:06;23.90;51.60
16347;DHT22;8283;48.504;13.734;2023-05-18T14:22:52;23.90;51.50
16347;DHT22;8283;48.504;13.734;2023-05-18T14:25:37;24.00;51.30
16347;DHT22;8283;48.504;13.734;2023-05-18T14:28:23;24.00;51.30
16347;DHT22;8283;48.504;13.734;2023-05-18T14:31:07;24.10;51.30
16347;DHT22;8283;48.504;13.734;2023-05-18T14:33:52;24.10;51.20
16347;DHT22;8283;48.504;13.734;2023-05-18T14:36:37;24.10;51.10
16347;DHT22;8283;48.504;13.734;2023-05-18T14:39:21;24.10;50.90
16347;DHT22;8283;48.504;13.734;2023-05-18T14:42:06;24.10;50.90
16347;DHT22;8283;48.504;13.734;2023-05-18T14:44:51;24.00;50.80
16347;DHT22;8283;48.504;13.734;2023-05-18T14:47:36;24.00;51.40
16347;DHT22;8283;48.504;13.734;2023-05-18T14:50:20;24.00;50.80
16347;DHT22;8283;48.504;13.734;2023-05-18T14:53:05;23.90;50.70
16347;DHT22;8283;48.504;13.734;2023-05-18T14:55:50;23.90;51.00
16347;DHT22;8283;48.504;13.734;2023-05-18T14:58:35;23.90;51.20
16347;DHT22;8283;48.504;13.734;2023-05-18T15:01:21;24.00;51.30
16347;DHT22;8283;48.504;13.734;2023-05-18T15:04:10;24.20;51.30
16347;DHT22;8283;48.504;13.734;2023-05-18T15:06:54;24.20;50.80
16347;DHT22;8283;48.504;13.734;2023-05-18T15:09:39;24.10;50.70
16347;DHT22;8283;48.504;13.734;2023-05-18T15:12:24;24.10;50.40
16347;DHT22;8283;48.504;13.734;2023-05-18T15:15:09;24.00;50.10
16347;DHT22;8283;48.504;13.734;2023-05-18T15:17:56;23.80;49.90
16347;DHT22;8283;48.504;13.734;2023-05-18T15:20:40;23.60;49.80
16347;DHT22;8283;48.504;13.734;2023-05-18T15:23:26;23.40;49.70
16347;DHT22;8283;48.504;13.734;2023-05-18T15:26:11;23.20;49.70
16347;DHT22;8283;48.504;13.734;2023-05-18T15:28:55;22.90;49.80
16347;DHT22;8283;48.504;13.734;2023-05-18T15:31:39;22.60;50.00
16347;DHT22;8283;48.504;13.734;2023-05-18T15:34:24;22.40;50.40
16347;DHT22;8283;48.504;13.734;2023-05-18T15:37:11;22.20;50.50
16347;DHT22;8283;48.504;13.734;2023-05-18T15:39:57;22.00;50.60
16347;DHT22;8283;48.504;13.734;2023-05-18T15:42:41;21.90;50.60
16347;DHT22;8283;48.504;13.734;2023-05-18T15:45:26;21.80;50.70
16347;DHT22;8283;48.504;13.734;2023-05-18T15:48:10;21.50;50.90
16347;DHT22;8283;48.504;13.734;2023-05-18T15:50:55;21.30;50.90
16347;DHT22;8283;48.504;13.734;2023-05-18T15:53:39;21.20;50.90
16347;DHT22;8283;48.504;13.734;2023-05-18T15:56:24;21.00;51.00
16347;DHT22;8283;48.504;13.734;2023-05-18T15:59:09;20.90;51.20
16347;DHT22;8283;48.504;13.734;2023-05-18T16:01:54;20.90;51.40
16347;DHT22;8283;48.504;13.734;2023-05-18T16:04:39;20.80;51.60
16347;DHT22;8283;48.504;13.734;2023-05-18T16:07:23;20.70;51.60
16347;DHT22;8283;48.504;13.734;2023-05-18T16:10:09;20.60;51.70
16347;DHT22;8283;48.504;13.734;2023-05-18T16:12:55;20.60;51.90
16347;DHT22;8283;48.504;13.734;2023-05-18T16:15:44;20.70;52.00
16347;DHT22;8283;48.504;13.734;2023-05-18T16:18:30;20.60;52.10
16347;DHT22;8283;48.504;13.734;2023-05-18T16:21:19;20.50;52.20
16347;DHT22;8283;48.504;13.734;2023-05-18T16:24:05;20.50;52.40
16347;DHT22;8283;48.504;13.734;2023-05-18T16:26:51;20.50;52.40
16347;DHT22;8283;48.504;13.734;2023-05-18T16:29:37;20.50;52.40
16347;DHT22;8283;48.504;13.734;2023-05-18T16:32:22;20.50;52.90
16347;DHT22;8283;48.504;13.734;2023-05-18T16:35:09;20.50;52.40
16347;DHT22;8283;48.504;13.734;2023-05-18T16:37:54;20.50;52.50
16347;DHT22;8283;48.504;13.734;2023-05-18T16:40:39;20.40;52.50
16347;DHT22;8283;48.504;13.734;2023-05-18T16:43:23;20.30;52.60
16347;DHT22;8283;48.504;13.734;2023-05-18T16:46:09;20.50;52.70
16347;DHT22;8283;48.504;13.734;2023-05-18T16:48:54;20.40;52.70
16347;DHT22;8283;48.504;13.734;2023-05-18T16:51:40;20.30;52.60
16347;DHT22;8283;48.504;13.734;2023-05-18T16:54:24;20.20;53.10
16347;DHT22;8283;48.504;13.734;2023-05-18T16:57:09;20.20;52.60
16347;DHT22;8283;48.504;13.734;2023-05-18T16:59:57;20.00;52.60
16347;DHT22;8283;48.504;13.734;2023-05-18T17:02:45;20.00;52.60
16347;DHT22;8283;48.504;13.734;2023-05-18T17:05:31;19.80;52.70
16347;DHT22;8283;48.504;13.734;2023-05-18T17:08:19;19.70;52.90
16347;DHT22;8283;48.504;13.734;2023-05-18T17:11:07;19.60;52.90
16347;DHT22;8283;48.504;13.734;2023-05-18T17:13:52;19.60;53.10
16347;DHT22;8283;48.504;13.734;2023-05-18T17:16:36;19.50;53.10
16347;DHT22;8283;48.504;13.734;2023-05-18T17:19:24;19.30;53.20
16347;DHT22;8283;48.504;13.734;2023-05-18T17:22:09;19.30;53.40
16347;DHT22;8283;48.504;13.734;2023-05-18T17:24:53;19.20;53.40
16347;DHT22;8283;48.504;13.734;2023-05-18T17:27:40;19.20;53.50
16347;DHT22;8283;48.504;13.734;2023-05-18T17:30:28;19.10;53.80
16347;DHT22;8283;48.504;13.734;2023-05-18T17:33:14;19.10;54.00
16347;DHT22;8283;48.504;13.734;2023-05-18T17:35:59;19.00;54.00
16347;DHT22;8283;48.504;13.734;2023-05-18T17:38:44;19.00;54.00
16347;DHT22;8283;48.504;13.734;2023-05-18T17:41:30;18.80;54.00
16347;DHT22;8283;48.504;13.734;2023-05-18T17:44:15;18.80;54.10
16347;DHT22;8283;48.504;13.734;2023-05-18T17:47:00;18.70;54.10
16347;DHT22;8283;48.504;13.734;2023-05-18T17:49:45;18.90;54.30
16347;DHT22;8283;48.504;13.734;2023-05-18T17:52:31;18.70;54.30